Time;durP1;ratioP1;P1;durP2;ratioP2;P2;SDS_P1;SDS_P2;PMS_P1;PMS_P2;Temp;Humidity;BMP_temperature;BMP_pressure;BME280_temperature;BME280_humidity;BME280_pressure;Samples;Min_cycle;Max_cycle;Signal;HPM_P1;HPM_P2
2022/10/07 00:02:00;;;;;;;40.90;37.97;;;7.30;1.00;;;;;;4936385;29;20192;-88
2022/10/07 00:04:27;;;;;;;41.83;39.23;;;7.40;1.00;;;;;;4935253;29;20195;-88
2022/10/07 00:06:54;;;;;;;46.77;43.80;;;7.40;1.00;;;;;;4935372;29;20281;-88
2022/10/07 00:09:21;;;;;;;41.80;39.17;;;7.40;1.00;;;;;;4935136;29;20224;-89
2022/10/07 00:11:48;;;;;;;40.60;38.00;;;7.40;1.00;;;;;;4934709;29;20654;-88
2022/10/07 00:14:16;;;;;;;65.97;61.40;;;7.30;1.00;;;;;;4935675;29;20560;-88
2022/10/07 00:16:43;;;;;;;105.77;100.03;;;7.40;1.00;;;;;;4935043;29;20277;-89
2022/10/07 00:19:13;;;;;;;98.77;93.23;;;7.30;1.00;;;;;;4935474;29;20244;-88
2022/10/07 00:21:40;;;;;;;80.77;76.40;;;7.30;1.00;;;;;;4934800;29;20192;-89
2022/10/07 00:24:09;;;;;;;67.60;63.77;;;7.30;1.00;;;;;;4935402;29;20193;-89
2022/10/07 00:26:37;;;;;;;51.03;47.93;;;7.40;1.00;;;;;;4935380;29;20291;-89
2022/10/07 00:29:06;;;;;;;67.53;63.77;;;7.40;1.00;;;;;;4935194;29;20216;-88
2022/10/07 00:31:35;;;;;;;87.67;82.90;;;7.30;1.00;;;;;;4935194;29;20276;-89
2022/10/07 00:34:04;;;;;;;41.73;39.20;;;7.30;1.00;;;;;;4935110;29;20672;-88
2022/10/07 00:36:34;;;;;;;50.63;47.10;;;7.30;1.00;;;;;;4935363;29;20233;-88
2022/10/07 00:39:03;;;;;;;47.37;44.47;;;7.30;1.00;;;;;;4935385;29;20193;-87
2022/10/07 00:41:33;;;;;;;40.40;37.70;;;7.30;1.00;;;;;;4935359;29;20204;-89
2022/10/07 00:44:21;;;;;;;40.87;37.37;;;7.30;1.00;;;;;;4934778;29;20193;-89
2022/10/07 00:46:48;;;;;;;40.30;37.63;;;7.20;1.00;;;;;;4918526;29;20597;-89
2022/10/07 00:49:15;;;;;;;37.03;34.60;;;7.20;1.00;;;;;;4919686;29;20231;-89
2022/10/07 00:51:43;;;;;;;39.33;36.53;;;7.10;1.00;;;;;;4932765;29;20193;-88
2022/10/07 00:54:14;;;;;;;40.93;38.17;;;7.10;1.00;;;;;;4938412;29;20193;-89
2022/10/07 00:56:43;;;;;;;36.60;34.23;;;7.10;1.00;;;;;;4938650;29;20198;-88
2022/10/07 00:59:12;;;;;;;39.17;36.63;;;7.00;1.00;;;;;;4938739;29;20204;-88
2022/10/07 01:01:40;;;;;;;40.43;37.73;;;7.00;1.00;;;;;;4938122;29;20225;-89
2022/10/07 01:04:08;;;;;;;40.00;37.50;;;7.00;1.00;;;;;;4938569;29;20645;-89
2022/10/07 01:06:38;;;;;;;39.57;37.07;;;6.90;1.00;;;;;;4938995;29;20196;-89
2022/10/07 01:09:07;;;;;;;54.93;51.33;;;6.90;1.00;;;;;;4939188;29;20234;-87
2022/10/07 01:11:44;;;;;;;46.60;43.70;;;6.90;1.00;;;;;;4938159;29;20207;-89
2022/10/07 01:14:17;;;;;;;51.97;48.87;;;6.80;1.00;;;;;;4938833;29;20275;-88
2022/10/07 01:16:52;;;;;;;59.67;56.33;;;6.80;1.00;;;;;;4937612;29;20195;-90
2022/10/07 01:19:43;;;;;;;78.40;74.33;;;6.80;1.00;;;;;;4938563;29;20196;-89
2022/10/07 01:22:21;;;;;;;61.30;58.00;;;6.80;1.00;;;;;;4934872;29;20196;-88
2022/10/07 01:25:04;;;;;;;63.27;59.87;;;6.70;1.00;;;;;;4938480;29;20189;-88
2022/10/07 01:27:35;;;;;;;67.43;63.90;;;6.70;1.00;;;;;;4937983;29;20192;-88
2022/10/07 01:30:06;;;;;;;56.83;53.73;;;6.70;1.00;;;;;;4937285;29;20208;-88
2022/10/07 01:32:37;;;;;;;58.60;55.40;;;6.70;1.00;;;;;;4937732;29;20256;-88
2022/10/07 01:35:10;;;;;;;55.87;52.63;;;6.70;1.00;;;;;;4937565;29;20420;-89
2022/10/07 01:37:43;;;;;;;34.20;31.70;;;6.70;1.00;;;;;;4938331;29;20665;-90
2022/10/07 01:40:14;;;;;;;32.57;30.23;;;6.70;1.00;;;;;;4937481;29;20198;-89
2022/10/07 01:42:45;;;;;;;26.47;24.17;;;6.70;1.00;;;;;;4937308;29;20268;-88
2022/10/07 01:45:15;;;;;;;26.87;24.43;;;6.70;1.00;;;;;;4937420;29;20190;-89
2022/10/07 01:47:42;;;;;;;21.43;19.50;;;6.70;1.00;;;;;;4937426;29;20209;-88
2022/10/07 01:50:12;;;;;;;23.10;21.10;;;6.70;1.00;;;;;;4937524;29;20219;-88
2022/10/07 01:52:51;;;;;;;23.17;21.37;;;6.70;1.00;;;;;;4937644;29;20286;-88
2022/10/07 01:55:31;;;;;;;22.23;20.23;;;6.70;1.00;;;;;;4937442;29;20202;-87
2022/10/07 01:58:09;;;;;;;22.50;20.67;;;6.70;1.00;;;;;;4935976;29;20188;-88
2022/10/07 02:00:42;;;;;;;25.80;23.77;;;6.70;1.00;;;;;;4937312;29;20723;-88
2022/10/07 02:03:25;;;;;;;22.47;20.53;;;6.70;1.00;;;;;;4937308;29;20274;-88
2022/10/07 02:05:56;;;;;;;19.40;17.83;;;6.60;1.00;;;;;;4936833;29;20196;-88
2022/10/07 02:08:32;;;;;;;20.70;18.97;;;6.60;1.00;;;;;;4936777;29;20572;-88
2022/10/07 02:11:13;;;;;;;22.30;20.40;;;6.60;1.00;;;;;;4937165;29;20755;-87
2022/10/07 02:13:54;;;;;;;22.97;20.73;;;6.60;1.00;;;;;;4937051;29;20189;-88
2022/10/07 02:16:26;;;;;;;20.17;18.03;;;6.60;1.00;;;;;;4936525;29;20189;-87
2022/10/07 02:18:54;;;;;;;19.90;18.03;;;6.60;1.00;;;;;;4937032;29;20185;-88
2022/10/07 02:21:24;;;;;;;18.67;16.63;;;6.60;1.00;;;;;;4937012;29;20201;-88
2022/10/07 02:23:54;;;;;;;18.90;16.97;;;6.60;1.00;;;;;;4936963;29;20700;-87
2022/10/07 02:26:23;;;;;;;23.07;20.67;;;6.60;1.00;;;;;;4936148;29;20619;-88
2022/10/07 02:28:54;;;;;;;17.93;15.93;;;6.60;1.00;;;;;;4936194;29;20699;-87
2022/10/07 02:31:25;;;;;;;24.87;18.40;;;6.60;1.00;;;;;;4936585;29;20236;-88
2022/10/07 02:33:56;;;;;;;23.53;19.93;;;6.60;1.00;;;;;;4936264;29;20182;-87
2022/10/07 02:36:27;;;;;;;18.57;16.67;;;6.60;1.00;;;;;;4936383;29;20216;-87
2022/10/07 02:38:55;;;;;;;18.27;16.37;;;6.60;1.00;;;;;;4936440;29;20196;-87
2022/10/07 02:41:32;;;;;;;19.50;17.50;;;6.60;1.00;;;;;;4935832;29;20536;-87
2022/10/07 02:44:09;;;;;;;19.80;17.83;;;6.60;1.00;;;;;;4936207;29;20188;-87
2022/10/07 02:46:40;;;;;;;19.37;17.43;;;6.60;1.00;;;;;;4936256;29;20206;-87
2022/10/07 02:49:11;;;;;;;17.97;16.13;;;6.60;1.00;;;;;;4936354;29;20198;-87
2022/10/07 02:51:44;;;;;;;18.67;16.80;;;6.50;1.00;;;;;;4936244;29;20247;-87
2022/10/07 02:54:11;;;;;;;18.23;16.40;;;6.50;1.00;;;;;;4936375;29;20297;-87
2022/10/07 02:56:41;;;;;;;19.63;17.80;;;6.50;1.00;;;;;;4935502;29;20193;-87
2022/10/07 02:59:10;;;;;;;22.53;20.33;;;6.50;1.00;;;;;;4936143;29;20247;-87
2022/10/07 03:01:44;;;;;;;18.03;16.23;;;6.40;1.00;;;;;;4936065;29;20204;-87
2022/10/07 03:04:11;;;;;;;15.73;14.13;;;6.40;1.00;;;;;;4936132;29;20195;-87
2022/10/07 03:06:40;;;;;;;15.97;14.43;;;6.40;1.00;;;;;;4935757;29;20216;-87
2022/10/07 03:09:08;;;;;;;13.03;11.47;;;6.40;1.00;;;;;;4935699;29;20197;-87
2022/10/07 03:11:38;;;;;;;16.97;15.40;;;6.30;1.00;;;;;;4935660;29;20216;-87
2022/10/07 03:14:05;;;;;;;20.17;18.57;;;6.20;1.00;;;;;;4935092;29;20251;-87
2022/10/07 03:16:33;;;;;;;26.70;24.77;;;6.30;1.00;;;;;;4935686;29;20634;-87
2022/10/07 03:19:00;;;;;;;22.00;20.27;;;6.20;1.00;;;;;;4935905;29;20212;-87
2022/10/07 03:21:27;;;;;;;31.37;29.20;;;6.20;1.00;;;;;;4935331;29;20193;-87
2022/10/07 03:23:56;;;;;;;19.03;17.43;;;6.20;1.00;;;;;;4934661;29;20229;-87
2022/10/07 03:26:23;;;;;;;14.00;12.53;;;6.20;1.00;;;;;;4935602;29;20195;-86
2022/10/07 03:28:50;;;;;;;16.93;15.30;;;6.20;1.00;;;;;;4935393;29;20599;-87
2022/10/07 03:31:17;;;;;;;22.00;20.37;;;6.10;1.00;;;;;;4935330;29;20232;-87
2022/10/07 03:33:45;;;;;;;31.63;29.53;;;6.10;1.00;;;;;;4934946;29;20664;-86
2022/10/07 03:36:12;;;;;;;36.13;33.80;;;6.10;1.00;;;;;;4935278;29;20315;-86
2022/10/07 03:38:39;;;;;;;36.47;34.07;;;6.10;1.00;;;;;;4934884;29;20207;-86
2022/10/07 03:41:06;;;;;;;34.60;32.30;;;6.10;1.00;;;;;;4934645;29;20200;-86
2022/10/07 03:43:34;;;;;;;41.67;38.90;;;6.10;1.00;;;;;;4934752;29;20197;-86
2022/10/07 03:46:02;;;;;;;35.30;33.00;;;6.10;1.00;;;;;;4934892;29;20196;-86
2022/10/07 03:48:30;;;;;;;38.93;36.33;;;6.10;1.00;;;;;;4934771;29;20197;-85
2022/10/07 03:50:58;;;;;;;37.67;35.23;;;6.10;1.00;;;;;;4934777;29;20629;-86
2022/10/07 03:53:28;;;;;;;28.90;26.93;;;6.00;1.00;;;;;;4933277;29;20900;-86
2022/10/07 03:55:55;;;;;;;34.47;32.20;;;6.10;1.00;;;;;;4934781;29;20259;-86
2022/10/07 03:58:23;;;;;;;32.30;29.83;;;6.10;1.00;;;;;;4934598;29;20193;-87
2022/10/07 04:00:50;;;;;;;25.80;23.77;;;6.10;1.00;;;;;;4934458;29;20204;-86
2022/10/07 04:03:18;;;;;;;21.63;19.67;;;6.10;1.00;;;;;;4934098;29;20194;-86
2022/10/07 04:05:58;;;;;;;39.73;37.20;;;6.00;1.00;;;;;;4934821;29;20296;-85
2022/10/07 04:08:28;;;;;;;43.73;41.07;;;6.10;1.00;;;;;;4934382;29;20197;-85
2022/10/07 04:10:56;;;;;;;50.57;47.43;;;6.10;1.00;;;;;;4933083;29;20227;-86
2022/10/07 04:13:23;;;;;;;37.03;34.67;;;6.00;1.00;;;;;;4935062;29;20188;-85
2022/10/07 04:15:50;;;;;;;32.47;30.33;;;6.10;1.00;;;;;;4936245;29;20197;-86
2022/10/07 04:18:17;;;;;;;30.57;28.50;;;6.10;1.00;;;;;;4953650;29;20274;-86
2022/10/07 04:20:44;;;;;;;31.13;29.07;;;6.10;1.00;;;;;;4944953;28;20199;-86
2022/10/07 04:23:11;;;;;;;34.33;32.10;;;6.10;1.00;;;;;;4938214;29;20255;-86
2022/10/07 04:25:44;;;;;;;39.13;36.70;;;6.10;1.00;;;;;;4937144;29;20208;-87
2022/10/07 04:28:16;;;;;;;38.20;35.70;;;6.10;1.00;;;;;;4939045;29;20193;-86
2022/10/07 04:30:43;;;;;;;33.37;31.17;;;6.00;1.00;;;;;;4938500;29;20683;-87
2022/10/07 04:33:12;;;;;;;33.47;31.27;;;6.10;1.00;;;;;;4938845;29;20205;-86
2022/10/07 04:35:40;;;;;;;32.33;30.17;;;6.10;1.00;;;;;;4938690;29;20233;-86
2022/10/07 04:38:09;;;;;;;15.02;13.48;;;6.10;1.00;;;;;;4938320;29;20435;-86
2022/10/07 04:40:39;;;;;;;35.20;32.87;;;6.10;1.00;;;;;;4938590;29;20252;-86
2022/10/07 04:43:22;;;;;;;32.50;30.17;;;6.10;1.00;;;;;;4938598;29;20268;-86
2022/10/07 04:45:51;;;;;;;57.97;54.60;;;6.10;1.00;;;;;;4937474;29;20200;-86
2022/10/07 04:48:19;;;;;;;53.40;50.23;;;6.10;1.00;;;;;;4937896;29;20620;-85
2022/10/07 04:50:47;;;;;;;48.87;45.63;;;6.10;1.00;;;;;;4938001;29;20618;-85
2022/10/07 04:53:15;;;;;;;38.27;35.70;;;6.10;1.00;;;;;;4938126;29;20542;-85
2022/10/07 04:55:45;;;;;;;37.93;35.43;;;6.10;1.00;;;;;;4938103;29;20555;-85
2022/10/07 04:58:14;;;;;;;45.23;42.27;;;6.10;1.00;;;;;;4938460;29;20655;-85
2022/10/07 05:00:45;;;;;;;44.87;41.63;;;6.10;1.00;;;;;;4938437;29;20207;-86
2022/10/07 05:03:13;;;;;;;50.73;47.53;;;6.10;1.00;;;;;;4938627;29;20209;-88
2022/10/07 05:05:45;;;;;;;57.70;54.33;;;6.10;1.00;;;;;;4938348;29;20557;-85
2022/10/07 05:08:13;;;;;;;61.27;57.77;;;6.10;1.00;;;;;;4937899;29;20188;-86
2022/10/07 05:10:41;;;;;;;60.37;56.87;;;6.10;1.00;;;;;;4935967;29;20224;-86
2022/10/07 05:13:11;;;;;;;52.00;48.93;;;6.10;31.10;;;;;;4924121;29;20189;-89
2022/10/07 05:15:48;;;;;;;31.20;29.07;;;6.10;1.00;;;;;;4951442;29;20220;-85
2022/10/07 05:18:17;;;;;;;26.73;24.83;;;6.10;1.00;;;;;;4952185;29;20240;-91
2022/10/07 05:20:45;;;;;;;27.13;25.10;;;6.10;1.00;;;;;;4944608;29;20203;-88
2022/10/07 05:23:12;;;;;;;26.30;24.23;;;6.10;1.00;;;;;;4936934;29;20681;-86
2022/10/07 05:25:40;;;;;;;25.93;24.00;;;6.10;8.20;;;;;;4937576;29;20211;-86
2022/10/07 05:28:07;;;;;;;26.77;24.73;;;6.20;1.00;;;;;;4943348;29;20544;-86
2022/10/07 05:30:37;;;;;;;28.27;26.17;;;6.20;99.90;;;;;;4949844;29;20232;-87
2022/10/07 05:33:06;;;;;;;30.80;28.67;;;6.20;1.00;;;;;;4943530;29;20203;-87
2022/10/07 05:35:33;;;;;;;33.57;30.73;;;6.30;1.00;;;;;;4937789;29;20228;-88
2022/10/07 05:38:01;;;;;;;34.57;32.30;;;6.30;1.00;;;;;;4937340;29;20650;-87
2022/10/07 05:40:28;;;;;;;41.23;38.60;;;6.30;11.00;;;;;;4937251;29;20204;-88
2022/10/07 05:42:55;;;;;;;48.37;45.23;;;6.40;1.00;;;;;;4937301;29;20197;-86
2022/10/07 05:45:22;;;;;;;43.27;40.57;;;6.40;1.00;;;;;;4937226;29;20197;-88
2022/10/07 05:47:51;;;;;;;47.23;44.40;;;6.50;1.00;;;;;;4941572;29;20587;-87
2022/10/07 05:50:27;;;;;;;46.60;43.77;;;6.60;74.50;;;;;;4948852;29;20220;-88
2022/10/07 05:53:01;;;;;;;47.77;44.37;;;6.70;86.30;;;;;;4946657;29;20207;-94
2022/10/07 05:55:40;;;;;;;54.40;51.10;;;6.90;47.70;;;;;;4950133;29;20195;-87
2022/10/07 05:58:18;;;;;;;50.63;47.60;;;7.10;98.00;;;;;;4941946;29;20213;-88
2022/10/07 06:00:56;;;;;;;45.03;42.10;;;7.30;38.70;;;;;;4924024;29;20533;-92
2022/10/07 06:03:25;;;;;;;49.00;46.07;;;7.40;1.00;;;;;;4932113;29;20226;-88
2022/10/07 06:05:54;;;;;;;50.07;47.03;;;7.50;1.00;;;;;;4920720;29;20261;-87
2022/10/07 06:08:27;;;;;;;50.10;46.53;;;7.60;9.20;;;;;;4923710;29;20208;-89
2022/10/07 06:13:47;;;;;;;45.57;42.77;;;7.70;19.90;;;;;;4937991;29;20260;-89
2022/10/07 06:16:17;;;;;;;42.63;40.00;;;7.70;1.00;;;;;;4955712;29;20575;-89
2022/10/07 06:18:46;;;;;;;39.83;37.23;;;7.80;1.00;;;;;;4934339;29;20198;-88
2022/10/07 06:21:15;;;;;;;43.03;40.23;;;7.90;8.70;;;;;;4941166;29;20226;-88
2022/10/07 06:23:42;;;;;;;46.67;43.80;;;8.00;1.00;;;;;;4936955;29;20238;-87
2022/10/07 06:26:10;;;;;;;46.97;44.13;;;8.00;1.00;;;;;;4936234;29;20666;-91
2022/10/07 06:28:39;;;;;;;42.40;39.13;;;8.20;1.90;;;;;;4940727;29;20198;-87
2022/10/07 06:31:14;;;;;;;43.37;40.37;;;8.40;2.00;;;;;;4946142;29;20234;-90
2022/10/07 06:33:42;;;;;;;47.63;44.33;;;8.80;13.60;;;;;;4953901;29;20203;-86
2022/10/07 06:36:20;;;;;;;40.10;37.57;;;9.10;24.80;;;;;;4946871;29;20239;-89
2022/10/07 06:38:50;;;;;;;46.90;43.77;;;9.50;1.00;;;;;;4950177;29;20251;-92
2022/10/07 06:41:17;;;;;;;48.50;45.47;;;9.80;6.10;;;;;;4941063;29;20207;-88
2022/10/07 06:43:45;;;;;;;50.33;47.13;;;10.40;99.90;;;;;;4941818;29;20200;-87
2022/10/07 06:46:14;;;;;;;;;;;11.30;99.90;;;;;;4955305;29;20035;-92
2022/10/07 06:48:43;;;;;;;43.43;40.60;;;;;;;;;;4945548;29;20011;-92
2022/10/07 06:51:12;;;;;;;;;;;13.40;99.90;;;;;;4939947;29;20228;-87
2022/10/07 06:53:39;;;;;;;;;;;14.50;9.30;;;;;;4936983;29;20396;-88
2022/10/07 06:56:07;;;;;;;;;;;15.50;1.00;;;;;;4939320;29;19927;-90
2022/10/07 06:58:35;;;;;;;;;;;16.50;1.00;;;;;;4936956;29;19997;-92
2022/10/07 07:01:01;;;;;;;;;;;17.30;1.00;;;;;;4937020;29;19926;-92
2022/10/07 07:03:29;;;;;;;;;;;18.10;1.00;;;;;;4936977;29;19930;-92
2022/10/07 07:05:56;;;;;;;;;;;18.80;1.00;;;;;;4947951;29;19926;-89
2022/10/07 07:11:39;;;;;;;;;;;19.90;1.00;;;;;;4939673;29;19926;-92
2022/10/07 07:14:07;;;;;;;;;;;20.60;1.00;;;;;;4954135;29;19990;-90
2022/10/07 07:16:34;;;;;;;;;;;21.10;1.00;;;;;;4951565;29;19937;-90
2022/10/07 07:19:02;;;;;;;;;;;21.50;1.00;;;;;;4936807;29;19931;-89
2022/10/07 07:21:33;;;;;;;;;;;21.90;1.00;;;;;;4945118;28;20018;-95
2022/10/07 07:24:34;;;;;;;;;;;22.40;1.00;;;;;;4948593;29;19949;-96
2022/10/07 07:27:03;;;;;;;;;;;22.70;1.00;;;;;;4936593;29;19992;-92
2022/10/07 07:29:39;;;;;;;;;;;23.30;1.00;;;;;;4941854;29;20000;-91
2022/10/07 07:36:09;;;;;;;;;;;24.10;1.00;;;;;;4928293;29;20248;-90
2022/10/07 08:06:48;;;;;;;39.10;36.80;;;25.80;1.00;;;;;;4719772;30;20201;-91
2022/10/07 08:09:47;;;;;;;36.50;34.37;;;25.60;1.00;;;;;;4738315;30;20211;-89
2022/10/07 08:12:22;;;;;;;37.65;35.53;;;25.40;1.00;;;;;;4764565;30;20235;-90
2022/10/07 08:25:44;;;;;;;42.50;39.97;;;25.20;1.00;;;;;;4787322;30;20232;-89
2022/10/07 08:28:11;;;;;;;37.40;35.20;;;25.10;1.00;;;;;;4789388;29;20324;-89
2022/10/07 08:34:09;;;;;;;42.67;40.07;;;24.60;1.00;;;;;;4941515;29;20304;-92
2022/10/07 08:36:39;;;;;;;43.37;40.93;;;24.60;1.00;;;;;;4888101;29;20225;-89
2022/10/07 08:39:07;;;;;;;44.47;41.80;;;24.50;1.00;;;;;;4919908;29;20221;-93
2022/10/07 08:41:44;;;;;;;44.83;42.23;;;24.60;1.00;;;;;;4922572;29;20213;-90
2022/10/07 08:44:20;;;;;;;43.03;40.40;;;24.70;1.00;;;;;;4916940;29;20208;-90
2022/10/07 08:47:40;;;;;;;40.70;38.37;;;24.80;1.00;;;;;;4919207;29;20209;-92
2022/10/07 08:50:27;;;;;;;42.50;39.97;;;24.80;1.00;;;;;;4907059;29;20226;-92
2022/10/07 08:56:14;;;;;;;42.53;40.10;;;24.60;1.00;;;;;;4917067;29;20189;-90
2022/10/07 08:58:55;;;;;;;40.50;38.20;;;24.60;1.00;;;;;;4920256;29;20209;-90
2022/10/07 09:01:33;;;;;;;43.30;40.87;;;24.60;1.00;;;;;;4928144;29;20182;-93
2022/10/07 09:04:13;;;;;;;45.17;42.53;;;24.60;1.00;;;;;;4916227;29;20182;-91
2022/10/07 09:06:45;;;;;;;42.27;39.83;;;24.60;1.00;;;;;;4917427;29;20213;-91
2022/10/07 09:09:16;;;;;;;39.80;37.57;;;24.50;1.00;;;;;;4919771;29;20202;-90
2022/10/07 09:11:46;;;;;;;45.90;43.37;;;24.60;1.00;;;;;;4925555;29;20217;-90
2022/10/07 09:14:31;;;;;;;46.93;44.33;;;24.50;1.00;;;;;;4921822;29;20200;-93
2022/10/07 09:17:03;;;;;;;45.40;42.87;;;24.50;1.00;;;;;;4919999;29;20217;-89
2022/10/07 09:19:38;;;;;;;45.73;43.17;;;24.40;1.00;;;;;;4919916;29;20190;-90
2022/10/07 09:22:11;;;;;;;45.20;42.70;;;24.30;1.00;;;;;;4919957;29;20213;-89
2022/10/07 09:27:47;;;;;;;38.60;36.47;;;24.30;1.00;;;;;;4917712;29;20204;-90
2022/10/07 09:30:17;;;;;;;41.83;39.50;;;24.40;1.00;;;;;;4920118;29;20182;-88
2022/10/07 09:33:14;;;;;;;44.13;41.73;;;24.40;1.00;;;;;;4924284;29;20203;-93
2022/10/07 09:35:54;;;;;;;;;;;24.20;1.00;;;;;;4919517;29;20066;-91
2022/10/07 09:38:37;;;;;;;43.93;41.53;;;24.00;1.00;;;;;;4952392;29;20193;-90
2022/10/07 09:41:31;;;;;;;34.83;32.77;;;23.60;1.00;;;;;;4948866;29;20212;-89
2022/10/07 09:44:06;;;;;;;51.47;48.43;;;23.40;1.00;;;;;;4944979;28;20205;-90
2022/10/07 09:46:50;;;;;;;51.10;48.20;;;23.10;1.00;;;;;;4946343;29;20198;-88
2022/10/07 09:49:41;;;;;;;54.93;51.30;;;22.70;1.00;;;;;;4946377;29;20306;-87
2022/10/07 09:52:39;;;;;;;52.30;49.33;;;22.40;1.00;;;;;;4946970;29;20205;-91
2022/10/07 09:55:30;;;;;;;;;;;22.10;1.00;;;;;;4949591;29;20082;-87
2022/10/07 09:58:00;;;;;;;61.53;58.00;;;21.90;1.00;;;;;;4942639;29;20209;-89
2022/10/07 10:03:37;;;;;;;54.90;51.73;;;21.30;1.00;;;;;;4944523;29;20217;-88
2022/10/07 10:06:07;;;;;;;59.43;55.60;;;21.20;1.00;;;;;;4937140;29;20848;-91
2022/10/07 10:08:46;;;;;;;53.50;50.33;;;21.00;1.00;;;;;;4943024;29;20235;-92
2022/10/07 10:11:27;;;;;;;54.83;51.60;;;20.90;1.00;;;;;;4942172;29;20190;-88
2022/10/07 10:13:54;;;;;;;56.97;53.70;;;20.90;1.00;;;;;;4941417;29;20718;-89
2022/10/07 10:16:34;;;;;;;52.30;49.33;;;20.70;1.00;;;;;;4933758;29;20227;-91
2022/10/07 10:19:05;;;;;;;52.43;49.37;;;20.50;1.00;;;;;;4942440;29;20266;-91
2022/10/07 10:24:15;;;;;;;50.60;47.73;;;20.20;1.00;;;;;;4935925;29;20199;-92
2022/10/07 10:27:19;;;;;;;53.13;50.07;;;20.20;1.00;;;;;;4952491;28;20197;-90
2022/10/07 10:29:54;;;;;;;50.57;47.70;;;20.20;1.00;;;;;;4880229;29;20221;-87
2022/10/07 10:33:00;;;;;;;53.17;50.10;;;20.20;1.00;;;;;;4937962;29;20214;-89
2022/10/07 10:35:32;;;;;;;49.47;46.63;;;20.20;1.00;;;;;;4927333;29;20195;-90
2022/10/07 10:38:12;;;;;;;52.33;49.20;;;20.10;1.00;;;;;;4933190;29;20223;-88
2022/10/07 10:40:42;;;;;;;53.07;50.00;;;20.20;1.00;;;;;;4936806;29;20192;-92
2022/10/07 10:43:22;;;;;;;53.73;50.63;;;20.10;1.00;;;;;;4937715;29;20207;-89
2022/10/07 10:46:07;;;;;;;56.23;52.70;;;20.10;1.00;;;;;;4920412;29;20216;-86
2022/10/07 10:48:42;;;;;;;56.03;52.97;;;20.10;1.00;;;;;;4918105;29;20193;-88
2022/10/07 10:51:41;;;;;;;51.93;49.07;;;20.10;1.00;;;;;;4943828;28;20187;-94
2022/10/07 10:57:44;;;;;;;50.60;47.73;;;20.20;1.00;;;;;;4941619;29;20289;-90
2022/10/07 11:00:15;;;;;;;47.67;44.93;;;20.20;1.00;;;;;;4936735;29;20715;-89
2022/10/07 11:03:16;;;;;;;52.70;49.23;;;20.30;1.00;;;;;;4944689;29;20194;-91
2022/10/07 11:05:45;;;;;;;54.00;51.00;;;20.30;1.00;;;;;;4940164;29;20195;-88
2022/10/07 11:08:18;;;;;;;53.37;50.37;;;20.40;1.00;;;;;;4941922;29;20198;-89
2022/10/07 11:10:50;;;;;;;48.80;46.00;;;20.30;1.00;;;;;;4935533;29;20185;-87
2022/10/07 11:13:27;;;;;;;51.07;47.90;;;20.20;1.00;;;;;;4937374;29;20380;-92
2022/10/07 11:16:00;;;;;;;52.40;49.55;;;20.10;1.00;;;;;;4944530;29;20633;-89
2022/10/07 11:21:36;;;;;;;55.17;52.07;;;20.20;1.00;;;;;;4923270;28;20203;-88
2022/10/07 11:24:16;;;;;;;53.90;50.90;;;20.20;1.00;;;;;;4935806;29;20187;-88
2022/10/07 11:26:56;;;;;;;54.87;51.83;;;20.20;1.00;;;;;;4956110;29;20205;-92
2022/10/07 11:30:06;;;;;;;50.80;47.93;;;20.20;1.00;;;;;;4953916;29;20238;-93
2022/10/07 11:32:40;;;;;;;55.93;52.67;;;20.20;1.00;;;;;;4935901;29;20306;-88
2022/10/07 11:35:22;;;;;;;52.33;49.40;;;20.30;1.00;;;;;;4937902;29;20545;-89
2022/10/07 11:38:15;;;;;;;50.60;47.77;;;20.30;1.00;;;;;;4947543;29;20743;-91
2022/10/07 11:40:47;;;;;;;52.73;49.47;;;20.30;1.00;;;;;;4935390;29;20221;-89
2022/10/07 11:43:21;;;;;;;52.83;49.87;;;20.20;1.00;;;;;;4935671;29;20195;-89
2022/10/07 11:45:52;;;;;;;48.13;45.37;;;20.00;1.00;;;;;;4935192;29;20641;-91
2022/10/07 11:48:24;;;;;;;49.43;46.53;;;20.00;1.00;;;;;;4936213;29;20209;-91
2022/10/07 11:51:02;;;;;;;48.57;45.77;;;20.10;1.00;;;;;;4946790;29;20208;-93
2022/10/07 11:53:35;;;;;;;49.20;46.43;;;20.30;1.00;;;;;;4944543;29;20313;-89
2022/10/07 11:56:07;;;;;;;45.83;43.13;;;20.30;1.00;;;;;;4935160;29;20196;-87
2022/10/07 11:58:37;;;;;;;44.03;41.47;;;20.40;1.00;;;;;;4934197;29;20218;-87
2022/10/07 12:01:44;;;;;;;42.97;40.47;;;20.40;1.00;;;;;;4950187;29;20235;-86
2022/10/07 12:04:45;;;;;;;39.50;37.20;;;20.30;1.00;;;;;;4938883;29;20611;-86
2022/10/07 12:07:39;;;;;;;43.93;41.53;;;20.10;1.00;;;;;;4945705;29;20253;-89
2022/10/07 12:10:35;;;;;;;45.00;42.53;;;20.00;1.00;;;;;;4935309;29;20198;-87
2022/10/07 12:13:38;;;;;;;42.88;40.55;;;20.10;1.00;;;;;;4881241;29;20218;-89
2022/10/07 12:17:05;;;;;;;44.87;42.37;;;20.10;1.00;;;;;;4952239;29;20186;-92
2022/10/07 12:19:46;;;;;;;43.55;41.00;;;20.10;1.00;;;;;;4939308;29;20246;-92
2022/10/07 12:22:18;;;;;;;45.45;42.95;;;20.10;1.00;;;;;;4916208;29;20637;-87
2022/10/07 12:25:27;;;;;;;45.42;42.83;;;20.10;1.00;;;;;;4917371;29;20297;-91
2022/10/07 12:27:56;;;;;;;43.78;41.33;;;20.10;1.00;;;;;;4925228;29;20222;-87
2022/10/07 12:30:41;;;;;;;43.45;41.05;;;20.10;1.00;;;;;;4934722;29;20211;-89
2022/10/07 12:33:47;;;;;;;39.88;37.63;;;20.10;1.00;;;;;;4942417;29;20709;-94
2022/10/07 12:36:50;;;;;;;25.75;24.23;;;20.00;1.00;;;;;;4930623;29;20227;-90
2022/10/07 12:39:44;;;;;;;27.83;26.27;;;19.90;1.00;;;;;;4946221;28;20633;-90
2022/10/07 12:42:38;;;;;;;34.58;32.63;;;19.80;1.00;;;;;;4960093;29;20189;-91
2022/10/07 12:45:10;;;;;;;35.67;33.58;;;19.80;1.00;;;;;;4955246;29;20206;-89
2022/10/07 12:47:39;;;;;;;35.47;33.45;;;19.80;1.00;;;;;;4946654;29;20200;-88
2022/10/07 12:50:11;;;;;;;38.47;36.38;;;19.80;1.00;;;;;;4940731;29;20192;-89
2022/10/07 12:52:45;;;;;;;37.63;35.58;;;19.70;1.00;;;;;;4939809;29;20209;-88
2022/10/07 12:55:18;;;;;;;36.33;34.35;;;19.70;1.00;;;;;;4938741;29;20193;-88
2022/10/07 12:57:50;;;;;;;45.33;42.80;;;19.60;1.00;;;;;;4938866;29;20591;-89
2022/10/07 13:00:21;;;;;;;43.55;41.13;;;19.70;1.00;;;;;;4926832;29;20193;-87
2022/10/07 13:03:36;;;;;;;40.60;38.33;;;19.60;1.00;;;;;;4940886;29;20205;-89
2022/10/07 13:06:39;;;;;;;30.15;28.48;;;19.60;1.00;;;;;;4884896;29;20658;-90
2022/10/07 13:09:41;;;;;;;32.83;31.05;;;19.60;1.00;;;;;;4916310;29;20212;-88
2022/10/07 13:12:20;;;;;;;33.13;31.33;;;19.60;1.00;;;;;;4903095;29;20192;-87
2022/10/07 13:15:10;;;;;;;27.17;25.58;;;19.60;1.00;;;;;;4938399;29;20585;-88
2022/10/07 13:17:46;;;;;;;35.85;33.83;;;19.50;1.00;;;;;;4938090;29;20202;-92
2022/10/07 13:20:39;;;;;;;39.70;37.47;;;19.50;1.00;;;;;;4937902;29;20192;-89
2022/10/07 13:23:15;;;;;;;36.22;34.22;;;19.50;1.00;;;;;;4932272;29;20623;-89
2022/10/07 13:25:45;;;;;;;32.58;30.77;;;19.50;1.00;;;;;;4938192;29;20242;-87
2022/10/07 13:28:15;;;;;;;29.90;28.00;;;19.40;1.00;;;;;;4937459;29;20618;-89
2022/10/07 13:30:44;;;;;;;33.58;31.30;;;19.40;1.00;;;;;;4937272;29;20233;-88
2022/10/07 13:33:22;;;;;;;30.70;28.48;;;19.30;1.00;;;;;;4937732;29;20227;-89
2022/10/07 13:35:50;;;;;;;24.48;22.85;;;19.30;1.00;;;;;;4937737;29;20194;-90
2022/10/07 13:38:25;;;;;;;24.80;22.98;;;19.20;1.00;;;;;;4937615;29;20200;-88
2022/10/07 13:40:56;;;;;;;27.67;20.55;;;19.10;1.00;;;;;;4938242;29;20302;-89
2022/10/07 13:43:26;;;;;;;74.57;29.30;;;19.10;1.00;;;;;;4937459;29;20192;-90
2022/10/07 13:45:53;;;;;;;39.78;20.23;;;19.00;1.00;;;;;;4928709;29;20188;-89
2022/10/07 13:48:25;;;;;;;51.72;18.75;;;18.90;1.00;;;;;;4937442;29;20197;-89
2022/10/07 13:50:57;;;;;;;50.05;16.65;;;18.90;1.00;;;;;;4939619;29;20224;-89
2022/10/07 13:53:27;;;;;;;82.85;21.13;;;18.90;1.00;;;;;;4939034;29;20223;-88
2022/10/07 13:56:13;;;;;;;71.15;18.70;;;18.90;1.00;;;;;;4937601;29;20183;-89
2022/10/07 13:58:40;;;;;;;71.93;19.30;;;18.80;1.00;;;;;;4937837;29;20243;-93
2022/10/07 14:01:08;;;;;;;71.72;18.40;;;18.80;1.00;;;;;;4937991;29;20194;-88
2022/10/07 14:04:01;;;;;;;111.57;26.83;;;18.70;1.00;;;;;;4929026;29;20660;-89
2022/10/07 14:06:47;;;;;;;123.15;28.38;;;18.60;1.00;;;;;;4931981;29;20222;-89
2022/10/07 14:09:25;;;;;;;156.65;35.40;;;18.60;1.00;;;;;;4938631;29;20197;-88
2022/10/07 14:12:06;;;;;;;154.20;35.63;;;18.50;1.00;;;;;;4939059;29;20189;-89
2022/10/07 14:14:37;;;;;;;143.55;34.80;;;18.40;1.00;;;;;;4938199;29;20236;-88
2022/10/07 14:17:10;;;;;;;140.75;34.35;;;18.40;1.00;;;;;;4938492;29;20559;-89
2022/10/07 14:19:39;;;;;;;137.35;33.97;;;18.40;1.00;;;;;;4937300;29;20189;-89
2022/10/07 14:22:18;;;;;;;138.95;34.10;;;18.30;1.00;;;;;;4938704;29;20207;-89
2022/10/07 14:24:57;;;;;;;138.02;33.47;;;18.20;1.00;;;;;;4937899;29;20256;-89
2022/10/07 14:27:51;;;;;;;141.27;34.13;;;18.20;1.00;;;;;;4938903;29;20184;-89
2022/10/07 14:30:26;;;;;;;132.80;32.78;;;18.10;1.00;;;;;;4937718;29;20208;-90
2022/10/07 14:36:08;;;;;;;137.50;33.95;;;18.10;1.00;;;;;;4936653;29;20282;-88
2022/10/07 14:38:36;;;;;;;136.38;33.35;;;18.00;1.00;;;;;;4936847;29;20559;-88
2022/10/07 14:41:03;;;;;;;133.00;33.33;;;18.00;1.00;;;;;;4937436;29;20200;-91